Time;durP1;ratioP1;P1;durP2;ratioP2;P2;SDS_P1;SDS_P2;PMS_P1;PMS_P2;Temp;Humidity;BMP_temperature;BMP_pressure;BME280_temperature;BME280_humidity;BME280_pressure;Samples;Min_cycle;Max_cycle;Signal;HPM_P1;HPM_P2
2021/12/29 00:00:14;;;;;;;21.02;3.25;;;6.80;99.90;;;;;;5094602;28;20122;-74
2021/12/29 00:02:40;;;;;;;16.45;3.33;;;6.90;99.90;;;;;;5113607;28;20063;-76
2021/12/29 00:05:07;;;;;;;21.17;3.85;;;6.90;99.90;;;;;;5094951;28;20063;-74
2021/12/29 00:07:33;;;;;;;24.08;4.90;;;6.90;99.90;;;;;;5094580;28;20495;-74
2021/12/29 00:10:01;;;;;;;25.67;5.18;;;6.80;99.90;;;;;;5094497;28;20099;-76
2021/12/29 00:12:27;;;;;;;21.70;3.35;;;6.80;99.90;;;;;;5094791;28;20096;-76
2021/12/29 00:14:54;;;;;;;20.63;3.15;;;6.90;99.90;;;;;;5113853;28;20062;-76
2021/12/29 00:17:20;;;;;;;22.60;3.28;;;6.90;99.90;;;;;;5128631;27;20047;-76
2021/12/29 00:19:46;;;;;;;26.53;3.70;;;6.90;99.90;;;;;;5113112;28;20040;-74
2021/12/29 00:22:12;;;;;;;28.98;3.53;;;6.90;99.90;;;;;;5129111;27;20215;-74
2021/12/29 00:24:38;;;;;;;29.05;3.67;;;7.00;99.90;;;;;;5094947;28;20052;-74
2021/12/29 00:27:05;;;;;;;31.50;3.95;;;7.00;99.90;;;;;;5077394;28;20082;-74
2021/12/29 00:29:31;;;;;;;;;;;6.90;99.90;;;;;;5113271;28;20061;-75
2021/12/29 00:31:57;;;;;;;23.83;3.10;;;6.90;99.90;;;;;;5129298;28;19919;-75
2021/12/29 00:34:22;;;;;;;35.15;4.60;;;6.90;99.90;;;;;;5094674;28;20479;-74
2021/12/29 00:36:48;;;;;;;27.25;3.97;;;7.00;99.90;;;;;;5094702;28;20043;-75
2021/12/29 00:39:14;;;;;;;27.23;3.85;;;7.00;99.90;;;;;;5077952;28;20051;-74
2021/12/29 00:41:40;;;;;;;25.75;3.47;;;7.00;99.90;;;;;;5112527;28;20051;-74
2021/12/29 00:44:09;;;;;;;32.95;3.72;;;7.00;99.90;;;;;;5094444;28;20044;-76
2021/12/29 00:46:38;;;;;;;29.27;3.95;;;7.00;99.90;;;;;;5078196;28;20051;-73
2021/12/29 00:49:05;;;;;;;35.38;4.47;;;7.00;99.90;;;;;;5111542;28;20058;-75
2021/12/29 00:51:31;;;;;;;32.10;4.45;;;7.10;99.90;;;;;;5128761;28;20483;-75
2021/12/29 00:53:57;;;;;;;29.73;4.78;;;7.10;99.90;;;;;;5077487;28;20054;-77
2021/12/29 00:56:23;;;;;;;52.45;4.88;;;7.00;99.90;;;;;;5131368;27;20052;-74
2021/12/29 00:58:49;;;;;;;35.25;4.50;;;7.00;99.90;;;;;;5098491;28;20046;-75
2021/12/29 01:01:15;;;;;;;46.05;4.68;;;7.20;99.90;;;;;;5098611;28;20055;-76
2021/12/29 01:03:43;;;;;;;54.00;5.65;;;7.00;99.90;;;;;;5098808;28;20051;-75
2021/12/29 01:06:09;;;;;;;;;;;7.00;99.90;;;;;;5133967;27;20387;-75
2021/12/29 01:08:35;;;;;;;35.60;3.88;;;7.00;99.90;;;;;;5117394;28;20302;-76
2021/12/29 01:11:02;;;;;;;44.13;4.00;;;7.00;99.90;;;;;;5097915;28;20040;-76
2021/12/29 01:13:33;;;;;;;;;;;7.00;99.90;;;;;;5117398;28;20058;-75
2021/12/29 01:18:33;;;;;;;46.85;5.05;;;7.00;99.90;;;;;;5098726;28;20371;-76
2021/12/29 01:20:59;;;;;;;40.92;5.03;;;7.00;99.90;;;;;;5116469;28;20113;-76
2021/12/29 01:23:25;;;;;;;60.10;5.50;;;7.00;99.90;;;;;;5116098;28;20043;-75
2021/12/29 01:25:51;;;;;;;54.67;5.25;;;7.00;99.90;;;;;;5115950;28;20040;-76
2021/12/29 01:28:17;;;;;;;56.22;5.43;;;7.00;99.90;;;;;;5098237;28;20039;-76
2021/12/29 01:30:43;;;;;;;54.05;5.50;;;7.00;99.90;;;;;;5098148;28;20487;-76
2021/12/29 01:33:09;;;;;;;55.03;6.93;;;7.00;99.90;;;;;;5116190;28;20508;-76
2021/12/29 01:35:37;;;;;;;100.80;7.75;;;7.00;99.90;;;;;;5098038;28;20131;-76
2021/12/29 01:38:04;;;;;;;63.33;6.40;;;7.10;99.90;;;;;;5132176;27;20387;-75
2021/12/29 01:40:31;;;;;;;50.63;6.53;;;7.10;99.90;;;;;;5115956;28;20081;-75
2021/12/29 01:42:57;;;;;;;76.07;6.75;;;7.10;99.90;;;;;;5080812;28;20120;-75
2021/12/29 01:45:24;;;;;;;68.38;7.28;;;7.10;99.90;;;;;;5097673;28;20105;-76
2021/12/29 01:47:49;;;;;;;44.63;6.07;;;7.10;99.90;;;;;;5115832;28;20092;-75
2021/12/29 01:50:16;;;;;;;58.08;5.97;;;7.10;99.90;;;;;;5115772;28;20270;-76
2021/12/29 01:52:50;;;;;;;41.60;6.30;;;7.10;99.90;;;;;;5116181;28;20360;-75
2021/12/29 01:55:16;;;;;;;45.10;5.15;;;7.10;99.90;;;;;;5116391;28;20090;-75
2021/12/29 01:57:43;;;;;;;45.55;5.05;;;7.10;99.90;;;;;;5115604;28;20122;-74
2021/12/29 02:00:14;;;;;;;38.13;4.78;;;7.10;99.90;;;;;;5096947;28;20044;-75
2021/12/29 02:02:40;;;;;;;44.00;4.47;;;7.10;99.90;;;;;;5115866;28;20379;-75
2021/12/29 02:05:07;;;;;;;43.40;4.82;;;7.10;99.90;;;;;;5096965;28;20043;-77
2021/12/29 02:07:33;;;;;;;44.13;5.30;;;7.20;99.90;;;;;;5080239;28;20560;-74
2021/12/29 02:09:59;;;;;;;37.35;4.72;;;7.20;99.90;;;;;;5096850;28;20078;-74
2021/12/29 02:12:25;;;;;;;41.80;5.38;;;7.20;99.90;;;;;;5115122;28;20561;-75
2021/12/29 02:14:51;;;;;;;35.33;4.82;;;7.20;99.90;;;;;;5096885;28;20048;-74
2021/12/29 02:17:16;;;;;;;30.63;5.63;;;7.20;99.90;;;;;;5131105;27;20096;-75
2021/12/29 02:19:46;;;;;;;49.38;5.78;;;7.20;99.90;;;;;;5115185;28;20462;-76
2021/12/29 02:22:33;;;;;;;44.90;5.95;;;7.20;99.90;;;;;;5114264;27;20063;-74
2021/12/29 02:27:52;;;;;;;46.03;7.30;;;7.30;99.90;;;;;;5096914;28;20055;-73
2021/12/29 02:30:24;;;;;;;53.67;7.07;;;7.40;99.90;;;;;;5131517;27;20128;-74
2021/12/29 02:32:54;;;;;;;57.92;7.15;;;7.40;99.90;;;;;;5079625;28;20043;-75
2021/12/29 02:35:21;;;;;;;39.80;6.55;;;7.40;99.90;;;;;;5114407;28;20066;-73
2021/12/29 02:37:46;;;;;;;43.93;7.07;;;7.50;99.90;;;;;;5096631;28;20097;-74
2021/12/29 02:40:13;;;;;;;48.47;7.30;;;7.50;99.90;;;;;;5113807;28;20039;-74
2021/12/29 02:42:41;;;;;;;34.10;7.13;;;7.60;99.90;;;;;;5079634;28;20054;-76
2021/12/29 02:45:14;;;;;;;50.05;8.43;;;7.60;99.90;;;;;;5130654;27;20098;-74
2021/12/29 02:47:41;;;;;;;63.95;11.43;;;7.60;99.90;;;;;;5114568;28;20062;-73
2021/12/29 02:50:07;;;;;;;56.58;9.40;;;7.70;99.90;;;;;;5114519;28;20062;-75
2021/12/29 02:52:33;;;;;;;68.07;10.43;;;7.70;99.90;;;;;;5096487;28;20046;-74
2021/12/29 02:54:59;;;;;;;64.35;11.05;;;7.70;99.90;;;;;;5096143;28;20087;-75
2021/12/29 02:57:25;;;;;;;62.67;11.15;;;7.70;99.90;;;;;;5114129;28;20086;-75
2021/12/29 02:59:51;;;;;;;63.45;12.95;;;7.70;99.90;;;;;;5096040;28;20048;-75
2021/12/29 03:02:18;;;;;;;77.63;12.60;;;7.80;99.90;;;;;;5095843;28;20181;-75
2021/12/29 03:04:44;;;;;;;;;;;7.70;99.90;;;;;;5130629;27;20184;-73
2021/12/29 03:07:10;;;;;;;51.40;11.00;;;7.70;99.90;;;;;;5114216;28;20415;-75
2021/12/29 03:09:35;;;;;;;55.65;10.52;;;7.80;99.90;;;;;;5096487;28;20092;-75
2021/12/29 03:12:01;;;;;;;58.97;13.00;;;7.70;99.90;;;;;;5078865;28;20124;-75
2021/12/29 03:14:27;;;;;;;63.28;12.70;;;7.70;99.90;;;;;;5129646;27;20108;-73
2021/12/29 03:16:53;;;;;;;53.75;11.73;;;7.80;99.90;;;;;;5095672;28;20040;-74
2021/12/29 03:19:19;;;;;;;58.38;12.00;;;7.80;99.90;;;;;;5112672;28;20050;-74
2021/12/29 03:21:45;;;;;;;51.03;11.48;;;7.70;99.90;;;;;;5113849;28;20032;-74
2021/12/29 03:24:11;;;;;;;56.65;11.40;;;7.70;99.90;;;;;;5113937;28;20055;-75
2021/12/29 03:26:38;;;;;;;50.60;10.30;;;7.70;99.90;;;;;;5113720;28;20062;-75
2021/12/29 03:29:05;;;;;;;54.60;10.02;;;7.70;99.90;;;;;;5129570;27;20048;-74
2021/12/29 03:31:33;;;;;;;52.38;10.30;;;7.70;99.90;;;;;;5129414;27;20048;-74
2021/12/29 03:34:00;;;;;;;46.13;10.68;;;7.70;99.90;;;;;;5112463;28;20122;-74
2021/12/29 03:36:26;;;;;;;42.40;9.43;;;7.70;99.90;;;;;;5112722;28;20059;-74
2021/12/29 03:38:51;;;;;;;46.25;9.65;;;7.70;99.90;;;;;;5113311;28;20043;-74
2021/12/29 03:41:19;;;;;;;41.95;9.18;;;7.70;99.90;;;;;;5095168;28;20047;-75
2021/12/29 03:43:47;;;;;;;38.13;9.40;;;7.60;99.90;;;;;;5095515;28;20092;-74
2021/12/29 03:46:15;;;;;;;52.72;11.43;;;7.70;99.90;;;;;;5113568;28;20059;-74
2021/12/29 03:48:44;;;;;;;45.30;8.80;;;7.60;99.90;;;;;;5094891;28;20498;-74
2021/12/29 03:51:11;;;;;;;47.67;9.20;;;7.60;99.90;;;;;;5095190;28;20054;-74
2021/12/29 03:53:37;;;;;;;47.13;9.70;;;7.60;99.90;;;;;;5095590;28;20353;-74
2021/12/29 03:56:04;;;;;;;39.92;8.15;;;7.60;99.90;;;;;;5078307;28;20052;-74
2021/12/29 03:58:30;;;;;;;44.80;8.95;;;7.60;99.90;;;;;;5095572;28;20465;-73
2021/12/29 04:00:58;;;;;;;39.28;8.63;;;7.60;99.90;;;;;;5113509;28;20452;-74
2021/12/29 04:03:25;;;;;;;41.80;9.63;;;7.60;99.90;;;;;;5094564;28;20488;-74
2021/12/29 04:05:50;;;;;;;43.15;9.48;;;7.60;99.90;;;;;;5112208;28;20047;-74
2021/12/29 04:08:17;;;;;;;47.72;9.60;;;7.70;99.90;;;;;;5094998;28;20054;-75
2021/12/29 04:10:43;;;;;;;45.17;10.10;;;7.60;99.90;;;;;;5113520;28;20072;-75
2021/12/29 04:13:08;;;;;;;53.55;10.27;;;7.60;99.90;;;;;;5113598;28;20397;-74
2021/12/29 04:15:36;;;;;;;43.75;9.73;;;7.60;99.90;;;;;;5112925;28;20440;-74
2021/12/29 04:18:14;;;;;;;49.38;10.98;;;7.60;99.90;;;;;;5094674;28;20574;-76
2021/12/29 04:20:57;;;;;;;56.83;11.27;;;7.60;99.90;;;;;;5080165;28;20375;-75
2021/12/29 04:23:30;;;;;;;52.08;11.95;;;7.60;99.90;;;;;;5097447;28;20040;-75
2021/12/29 04:25:57;;;;;;;53.35;12.20;;;7.60;99.90;;;;;;5112982;28;20581;-75
2021/12/29 04:28:25;;;;;;;;;;;7.60;99.90;;;;;;5113514;28;20056;-75
2021/12/29 04:31:12;;;;;;;49.33;12.13;;;7.60;99.90;;;;;;5094733;28;20356;-75
2021/12/29 04:33:37;;;;;;;54.42;10.88;;;7.50;99.90;;;;;;5128949;28;20209;-75
2021/12/29 04:36:04;;;;;;;51.55;11.00;;;7.50;99.90;;;;;;5112701;28;20185;-75
2021/12/29 04:38:30;;;;;;;60.13;11.02;;;7.50;99.90;;;;;;5112552;28;20055;-74
2021/12/29 04:40:56;;;;;;;54.20;11.93;;;7.50;99.90;;;;;;5112679;28;20044;-74
2021/12/29 04:43:24;;;;;;;55.88;11.20;;;7.50;99.90;;;;;;5094489;28;20044;-75
2021/12/29 04:45:51;;;;;;;60.67;13.00;;;7.50;99.90;;;;;;5077904;28;20491;-75
2021/12/29 04:48:17;;;;;;;55.73;11.93;;;7.50;99.90;;;;;;5094472;28;20055;-75
2021/12/29 04:51:14;;;;;;;61.65;11.80;;;7.50;99.90;;;;;;5094381;28;20163;-75
2021/12/29 04:53:33;;;;;;;65.45;12.18;;;7.50;99.90;;;;;;5112738;28;20043;-74
2021/12/29 04:55:59;;;;;;;67.85;12.20;;;7.50;99.90;;;;;;5112517;28;20134;-75
2021/12/29 04:58:25;;;;;;;56.97;12.98;;;7.50;99.90;;;;;;5112629;28;20096;-75
2021/12/29 05:00:51;;;;;;;61.88;13.10;;;7.50;99.90;;;;;;5077717;28;20086;-75
2021/12/29 05:03:18;;;;;;;67.85;14.07;;;7.50;99.90;;;;;;5112756;28;20157;-75
2021/12/29 05:08:25;;;;;;;69.30;13.10;;;7.50;99.90;;;;;;5112719;28;20450;-74
2021/12/29 05:10:52;;;;;;;77.03;14.90;;;7.50;99.90;;;;;;5111353;28;20108;-74
2021/12/29 05:13:18;;;;;;;;;;;7.50;99.90;;;;;;5112765;28;20043;-74
2021/12/29 05:15:44;;;;;;;53.30;11.43;;;7.50;99.90;;;;;;5094232;28;19930;-75
2021/12/29 05:18:11;;;;;;;67.22;12.38;;;7.50;99.90;;;;;;5112332;28;20066;-74
2021/12/29 05:20:37;;;;;;;60.78;11.82;;;7.50;99.90;;;;;;5077029;28;20127;-75
2021/12/29 05:23:03;;;;;;;75.40;12.50;;;7.50;99.90;;;;;;5094262;28;20047;-75
2021/12/29 05:25:31;;;;;;;56.40;12.55;;;7.50;99.90;;;;;;5111934;28;20051;-74
2021/12/29 05:27:56;;;;;;;;;;;7.50;99.90;;;;;;5128490;28;20044;-74
2021/12/29 05:30:23;;;;;;;50.87;10.67;;;7.50;99.90;;;;;;5112304;28;20018;-74
2021/12/29 05:32:48;;;;;;;43.40;10.13;;;7.50;99.90;;;;;;5112008;28;20043;-75
2021/12/29 05:35:15;;;;;;;54.97;10.82;;;7.50;99.90;;;;;;5112260;28;20047;-74
2021/12/29 05:37:42;;;;;;;48.03;9.68;;;7.50;99.90;;;;;;5127491;28;20067;-75
2021/12/29 05:40:09;;;;;;;55.25;10.73;;;7.50;99.90;;;;;;5093945;28;20051;-74
2021/12/29 05:42:35;;;;;;;57.50;10.90;;;7.50;99.90;;;;;;5113903;28;20112;-74
2021/12/29 05:45:08;;;;;;;59.15;11.38;;;7.60;99.90;;;;;;5097366;28;20047;-75
2021/12/29 05:47:34;;;;;;;51.30;10.95;;;7.50;99.90;;;;;;5080492;28;20052;-74
2021/12/29 05:50:00;;;;;;;51.92;9.77;;;7.50;99.90;;;;;;5097652;28;20139;-74
2021/12/29 05:52:28;;;;;;;64.10;11.02;;;7.50;99.90;;;;;;5115643;28;20043;-75
2021/12/29 05:54:54;;;;;;;66.85;11.65;;;7.60;99.90;;;;;;5115570;28;20083;-75
2021/12/29 05:57:20;;;;;;;57.50;10.75;;;7.50;99.90;;;;;;5096878;28;20085;-74
2021/12/29 05:59:46;;;;;;;48.35;10.32;;;7.60;99.90;;;;;;5096795;28;20156;-75
2021/12/29 06:02:11;;;;;;;58.75;11.65;;;7.60;99.90;;;;;;5093825;28;20089;-75
2021/12/29 06:04:37;;;;;;;59.70;10.57;;;7.60;99.90;;;;;;5094020;28;20135;-75
2021/12/29 06:07:03;;;;;;;52.40;10.73;;;7.60;99.90;;;;;;5077209;28;20044;-75
2021/12/29 06:09:30;;;;;;;62.75;11.73;;;7.60;99.90;;;;;;5093507;28;20460;-75
2021/12/29 06:11:56;;;;;;;51.90;11.13;;;7.60;99.90;;;;;;5093599;28;20048;-75
2021/12/29 06:14:22;;;;;;;66.30;11.23;;;7.60;99.90;;;;;;5077555;28;20205;-75
2021/12/29 06:16:48;;;;;;;61.55;10.25;;;7.60;99.90;;;;;;5093597;28;20131;-75
2021/12/29 06:19:14;;;;;;;57.78;10.13;;;7.60;99.90;;;;;;5094635;28;20044;-75
2021/12/29 06:21:40;;;;;;;51.38;9.30;;;7.50;99.90;;;;;;5094479;28;20047;-75
2021/12/29 06:24:07;;;;;;;64.57;9.90;;;7.60;99.90;;;;;;5094234;28;20137;-75
2021/12/29 06:26:34;;;;;;;44.55;8.93;;;7.60;99.90;;;;;;5076273;28;20282;-75
2021/12/29 06:28:59;;;;;;;51.45;9.80;;;7.60;99.90;;;;;;5093303;28;20116;-75
2021/12/29 06:31:25;;;;;;;46.15;9.07;;;7.60;99.90;;;;;;5076266;28;20221;-75
2021/12/29 06:33:51;;;;;;;43.97;9.43;;;7.60;99.90;;;;;;5093647;28;20482;-75
2021/12/29 06:36:17;;;;;;;56.10;9.45;;;7.50;99.90;;;;;;5077140;28;20052;-75
2021/12/29 06:38:44;;;;;;;51.40;9.88;;;7.50;99.90;;;;;;5094208;28;20384;-75
2021/12/29 06:41:09;;;;;;;57.20;10.10;;;7.60;99.90;;;;;;5092971;28;20109;-74
2021/12/29 06:43:35;;;;;;;58.17;9.02;;;7.60;99.90;;;;;;5076163;28;20056;-76
2021/12/29 06:46:01;;;;;;;52.28;9.40;;;7.60;99.90;;;;;;5094161;28;20060;-75
2021/12/29 06:48:27;;;;;;;47.55;8.70;;;7.50;99.90;;;;;;5092834;28;20048;-75
2021/12/29 06:50:53;;;;;;;54.00;9.55;;;7.60;99.90;;;;;;5092283;28;20044;-75
2021/12/29 06:53:18;;;;;;;47.42;8.20;;;7.60;99.90;;;;;;5075074;28;20040;-75
2021/12/29 06:55:44;;;;;;;55.58;9.52;;;7.60;99.90;;;;;;5092840;28;20124;-74
2021/12/29 06:58:11;;;;;;;54.42;9.27;;;7.50;99.90;;;;;;5093660;28;20044;-75
2021/12/29 07:00:37;;;;;;;78.00;11.63;;;7.50;99.90;;;;;;5092699;28;20040;-74
2021/12/29 07:03:04;;;;;;;61.75;9.50;;;7.50;99.90;;;;;;5092453;28;20063;-74
2021/12/29 07:05:30;;;;;;;59.15;8.68;;;7.50;99.90;;;;;;5094661;28;20048;-75
2021/12/29 07:07:57;;;;;;;50.33;9.15;;;7.60;99.90;;;;;;5093939;28;20091;-76
2021/12/29 07:10:23;;;;;;;62.43;9.50;;;7.50;99.90;;;;;;5093144;28;20040;-76
2021/12/29 07:12:49;;;;;;;56.23;8.70;;;7.60;99.90;;;;;;5075618;28;20127;-76
2021/12/29 07:15:15;;;;;;;55.95;9.18;;;7.60;99.90;;;;;;5092747;28;20127;-75
2021/12/29 07:17:41;;;;;;;55.80;9.00;;;7.60;99.90;;;;;;5075720;28;20047;-76
2021/12/29 07:20:07;;;;;;;64.15;9.38;;;7.60;99.90;;;;;;5092485;28;20121;-76
2021/12/29 07:22:33;;;;;;;40.03;9.10;;;7.60;99.90;;;;;;5092349;28;20521;-76
2021/12/29 07:24:59;;;;;;;57.47;9.48;;;7.60;99.90;;;;;;5094111;28;20106;-76
2021/12/29 07:27:25;;;;;;;64.25;10.90;;;7.60;99.90;;;;;;5074930;28;20114;-76
2021/12/29 07:29:52;;;;;;;57.55;10.02;;;7.60;99.90;;;;;;5075407;28;20075;-75
2021/12/29 07:32:18;;;;;;;56.78;10.43;;;7.60;99.90;;;;;;5075206;28;20050;-76
2021/12/29 07:34:44;;;;;;;56.03;9.18;;;7.60;99.90;;;;;;5092951;28;20048;-76
2021/12/29 07:37:11;;;;;;;53.47;9.02;;;7.60;99.90;;;;;;5092864;28;20401;-76
2021/12/29 07:39:37;;;;;;;;;;;7.70;99.90;;;;;;5075872;28;20054;-75
2021/12/29 07:42:03;;;;;;;45.40;8.03;;;7.70;99.90;;;;;;5093165;28;19920;-75
2021/12/29 07:44:29;;;;;;;48.83;9.15;;;7.70;99.90;;;;;;5092304;28;20048;-76
2021/12/29 07:46:57;;;;;;;52.95;9.40;;;7.70;99.90;;;;;;5093383;28;20052;-76
2021/12/29 07:49:24;;;;;;;47.22;8.95;;;7.70;99.90;;;;;;5091994;28;20162;-76
2021/12/29 07:51:50;;;;;;;46.60;9.75;;;7.70;99.90;;;;;;5074774;28;20105;-76
2021/12/29 07:54:16;;;;;;;60.10;10.23;;;7.60;99.90;;;;;;5091953;28;20048;-76
2021/12/29 07:56:43;;;;;;;53.20;8.25;;;7.60;99.90;;;;;;5091904;28;20289;-77
2021/12/29 07:59:09;;;;;;;55.30;8.52;;;7.60;99.90;;;;;;5092776;28;20040;-76
2021/12/29 08:01:35;;;;;;;49.88;8.20;;;7.60;99.90;;;;;;5093050;28;20048;-76
2021/12/29 08:04:01;;;;;;;43.13;8.23;;;7.60;99.90;;;;;;5094553;28;20035;-76
2021/12/29 08:06:27;;;;;;;41.90;7.97;;;7.60;99.90;;;;;;5094934;28;20043;-76
2021/12/29 08:08:53;;;;;;;40.78;7.15;;;7.70;99.90;;;;;;5112152;28;20479;-75
2021/12/29 08:11:19;;;;;;;35.73;7.00;;;7.70;99.90;;;;;;5094816;28;20093;-76
2021/12/29 08:13:46;;;;;;;37.00;6.68;;;7.70;99.90;;;;;;5077789;28;20285;-76
2021/12/29 08:16:12;;;;;;;27.40;6.00;;;7.70;99.90;;;;;;5095164;28;20081;-75
2021/12/29 08:18:38;;;;;;;27.08;5.65;;;7.70;99.90;;;;;;5078060;28;20039;-75
2021/12/29 08:21:04;;;;;;;21.75;5.00;;;7.80;99.90;;;;;;5112928;28;20040;-75
2021/12/29 08:23:31;;;;;;;30.10;6.65;;;7.80;99.90;;;;;;5094762;28;20059;-76
2021/12/29 08:25:57;;;;;;;37.05;5.85;;;7.80;99.90;;;;;;5112947;28;20114;-75
2021/12/29 08:28:23;;;;;;;32.35;6.10;;;7.90;99.90;;;;;;5061280;28;20070;-75
2021/12/29 08:30:50;;;;;;;34.20;5.97;;;7.90;99.90;;;;;;5078504;28;20048;-76
2021/12/29 08:33:16;;;;;;;25.35;5.65;;;7.90;99.90;;;;;;5112927;28;20360;-75
2021/12/29 08:35:42;;;;;;;29.70;5.85;;;7.90;99.90;;;;;;5112918;28;20119;-76
2021/12/29 08:38:07;;;;;;;34.78;6.88;;;8.00;99.90;;;;;;5112748;28;20120;-75
2021/12/29 08:40:33;;;;;;;42.10;6.43;;;8.00;99.90;;;;;;5112868;28;20079;-75
2021/12/29 08:43:02;;;;;;;33.10;6.93;;;7.90;99.90;;;;;;5077502;28;20474;-75
2021/12/29 08:45:28;;;;;;;38.08;6.05;;;8.00;99.90;;;;;;5128634;28;20051;-74
2021/12/29 08:47:57;;;;;;;39.13;7.38;;;8.10;99.90;;;;;;5094628;28;20078;-75
2021/12/29 08:50:32;;;;;;;43.60;7.90;;;8.10;99.90;;;;;;5112836;28;20120;-76
2021/12/29 08:52:59;;;;;;;36.40;7.70;;;8.10;99.90;;;;;;5112310;28;20476;-75
2021/12/29 08:55:26;;;;;;;44.58;7.28;;;8.20;99.90;;;;;;5112675;28;20054;-74
2021/12/29 08:57:52;;;;;;;34.67;7.45;;;8.20;99.90;;;;;;5111757;28;20127;-74
2021/12/29 09:00:18;;;;;;;41.35;7.43;;;8.30;99.90;;;;;;5112701;28;20194;-74
2021/12/29 09:02:44;;;;;;;41.95;8.30;;;8.30;99.90;;;;;;5077562;28;20051;-75
2021/12/29 09:05:12;;;;;;;33.05;6.18;;;8.20;99.90;;;;;;5078158;28;20155;-76
2021/12/29 09:07:37;;;;;;;;;;;8.20;99.90;;;;;;5113341;28;20052;-73
2021/12/29 09:10:06;;;;;;;33.37;6.37;;;8.20;99.90;;;;;;5112565;28;20323;-76
2021/12/29 09:12:33;;;;;;;42.80;7.60;;;8.30;99.90;;;;;;5112412;28;20047;-75
2021/12/29 09:14:59;;;;;;;37.60;6.75;;;8.30;99.90;;;;;;5077779;28;20047;-76
2021/12/29 09:17:25;;;;;;;43.50;6.53;;;8.30;99.90;;;;;;5078592;28;20510;-76
2021/12/29 09:19:51;;;;;;;43.58;7.43;;;8.30;99.90;;;;;;5098104;28;20043;-77
2021/12/29 09:22:16;;;;;;;39.40;7.28;;;8.30;99.90;;;;;;5132480;27;20054;-77
2021/12/29 09:24:43;;;;;;;42.83;7.72;;;8.30;99.90;;;;;;5081352;28;20047;-75
2021/12/29 09:27:10;;;;;;;34.20;6.63;;;8.30;99.90;;;;;;5115612;27;20473;-75
2021/12/29 09:29:36;;;;;;;48.08;7.90;;;8.30;99.90;;;;;;5098069;28;20273;-76
2021/12/29 09:32:04;;;;;;;43.63;8.43;;;8.30;99.90;;;;;;5081392;28;20382;-76
2021/12/29 09:34:30;;;;;;;42.03;7.90;;;8.30;99.90;;;;;;5098312;28;20043;-75
2021/12/29 09:36:56;;;;;;;42.67;8.25;;;8.40;99.90;;;;;;5098245;28;20040;-75
2021/12/29 09:39:24;;;;;;;41.42;8.25;;;8.30;99.90;;;;;;5098036;28;20476;-76
2021/12/29 09:41:50;;;;;;;39.80;8.93;;;8.30;99.90;;;;;;5098195;28;20051;-75
2021/12/29 09:44:16;;;;;;;39.67;8.02;;;8.30;99.90;;;;;;5116008;28;20040;-76
2021/12/29 09:46:42;;;;;;;38.35;7.90;;;8.30;99.90;;;;;;5116047;28;20318;-75
2021/12/29 09:49:08;;;;;;;38.97;7.50;;;8.30;99.90;;;;;;5114845;27;20047;-76
2021/12/29 09:51:34;;;;;;;37.58;7.70;;;8.30;99.90;;;;;;5115896;28;20036;-76
2021/12/29 09:54:00;;;;;;;40.67;7.38;;;8.30;99.90;;;;;;5097590;28;20044;-76
2021/12/29 09:56:27;;;;;;;36.35;7.65;;;8.30;99.90;;;;;;5081371;28;20131;-75
2021/12/29 09:58:53;;;;;;;35.58;8.35;;;8.40;99.90;;;;;;5097824;28;20395;-77
2021/12/29 10:01:20;;;;;;;30.83;7.53;;;8.40;99.90;;;;;;5098162;28;20043;-76
2021/12/29 10:03:48;;;;;;;30.23;7.90;;;8.50;99.90;;;;;;5115260;28;20737;-76
2021/12/29 10:06:14;;;;;;;37.70;7.45;;;8.50;99.90;;;;;;5132166;27;20475;-78
2021/12/29 10:08:44;;;;;;;30.27;8.38;;;8.50;99.90;;;;;;5114198;28;20097;-77
2021/12/29 10:11:11;;;;;;;30.38;7.55;;;8.50;99.90;;;;;;5114425;28;20100;-78
2021/12/29 10:13:45;;;;;;;28.42;7.72;;;8.60;99.90;;;;;;5080494;28;20058;-77
2021/12/29 10:16:14;;;;;;;27.88;7.22;;;8.60;99.90;;;;;;5081156;28;20047;-76
2021/12/29 10:18:43;;;;;;;26.35;7.63;;;8.60;99.90;;;;;;5131645;27;20090;-75
2021/12/29 10:21:18;;;;;;;29.13;7.72;;;8.60;99.90;;;;;;5115862;28;20046;-75
2021/12/29 10:23:47;;;;;;;30.75;6.63;;;8.70;99.90;;;;;;5115313;28;20035;-77
2021/12/29 10:26:26;;;;;;;27.40;7.25;;;8.60;99.90;;;;;;5113809;27;20067;-76
2021/12/29 10:28:54;;;;;;;29.77;6.85;;;8.60;99.90;;;;;;5130720;27;20475;-76
2021/12/29 10:31:25;;;;;;;25.23;7.25;;;8.70;99.90;;;;;;5131619;27;20044;-77
2021/12/29 10:33:53;;;;;;;28.73;6.32;;;8.60;99.90;;;;;;5113870;28;20047;-75
2021/12/29 10:36:31;;;;;;;28.13;7.10;;;8.60;99.90;;;;;;5115360;28;20181;-77
2021/12/29 10:39:06;;;;;;;32.78;7.20;;;8.60;99.90;;;;;;5097282;28;20039;-77
2021/12/29 10:41:43;;;;;;;34.97;6.90;;;8.60;99.90;;;;;;5115204;28;20051;-75
2021/12/29 10:44:09;;;;;;;33.35;6.32;;;8.60;99.90;;;;;;5096784;28;20383;-73
2021/12/29 10:46:35;;;;;;;37.17;6.78;;;8.60;99.90;;;;;;5080519;28;20051;-76
2021/12/29 10:49:06;;;;;;;33.85;7.28;;;8.70;99.90;;;;;;5114616;28;20090;-75
2021/12/29 10:51:37;;;;;;;42.63;7.40;;;8.80;99.90;;;;;;5114850;28;20369;-77
2021/12/29 10:54:11;;;;;;;31.20;7.50;;;8.80;99.90;;;;;;5096474;28;20495;-75
2021/12/29 10:56:41;;;;;;;38.78;7.45;;;8.80;99.90;;;;;;5114850;28;20364;-77
2021/12/29 10:59:20;;;;;;;34.85;7.80;;;8.80;99.90;;;;;;5115231;28;20044;-79
2021/12/29 11:01:49;;;;;;;37.00;7.65;;;8.80;99.90;;;;;;5095525;28;20545;-75
2021/12/29 11:04:16;;;;;;;34.90;7.38;;;8.80;99.90;;;;;;5113784;27;20555;-77
2021/12/29 11:06:46;;;;;;;34.03;8.15;;;8.90;99.90;;;;;;5095961;28;20479;-77
2021/12/29 11:09:15;;;;;;;42.33;9.63;;;8.90;99.90;;;;;;5114274;28;20055;-76
2021/12/29 11:11:46;;;;;;;37.50;8.38;;;9.00;99.90;;;;;;5096371;28;20154;-75
2021/12/29 11:14:16;;;;;;;35.45;7.15;;;9.00;99.90;;;;;;5129940;27;20086;-73
2021/12/29 11:16:45;;;;;;;33.97;7.55;;;9.10;99.90;;;;;;5130997;27;20123;-76
2021/12/29 11:19:11;;;;;;;36.42;7.60;;;9.10;99.90;;;;;;5095641;28;20142;-75
2021/12/29 11:21:42;;;;;;;29.75;6.95;;;9.10;99.90;;;;;;5113828;28;20054;-74
2021/12/29 11:24:28;;;;;;;35.22;6.75;;;9.00;99.90;;;;;;5096464;28;20047;-73
2021/12/29 11:26:54;;;;;;;34.72;7.68;;;9.00;99.90;;;;;;5114443;28;20097;-74
2021/12/29 11:29:22;;;;;;;25.20;5.95;;;9.00;99.90;;;;;;5078868;28;20119;-76
2021/12/29 11:31:56;;;;;;;41.83;6.78;;;9.00;99.90;;;;;;5114089;28;20040;-75
2021/12/29 11:34:26;;;;;;;26.02;6.63;;;9.00;99.90;;;;;;5129666;27;20075;-75
2021/12/29 11:37:06;;;;;;;37.55;6.18;;;9.00;99.90;;;;;;5130391;27;20043;-75
2021/12/29 11:39:35;;;;;;;31.02;6.45;;;9.00;99.90;;;;;;5129427;27;20557;-74
2021/12/29 11:42:02;;;;;;;34.38;6.68;;;8.90;99.90;;;;;;5112914;28;20044;-73
2021/12/29 11:44:28;;;;;;;31.63;7.22;;;9.00;99.90;;;;;;5095205;28;20043;-75
2021/12/29 11:46:54;;;;;;;31.23;6.72;;;8.90;99.90;;;;;;5096146;28;20122;-74
2021/12/29 11:49:20;;;;;;;37.60;7.22;;;8.90;99.90;;;;;;5095301;28;20051;-75
2021/12/29 11:52:13;;;;;;;33.83;7.40;;;8.90;99.90;;;;;;5095216;28;20067;-74
2021/12/29 11:54:56;;;;;;;41.90;8.27;;;8.90;99.90;;;;;;5113115;28;20313;-76
2021/12/29 11:57:25;;;;;;;37.53;8.60;;;8.90;99.90;;;;;;5129752;27;20052;-74
2021/12/29 11:59:52;;;;;;;36.40;9.68;;;8.90;99.90;;;;;;5113779;28;20047;-75
2021/12/29 12:02:25;;;;;;;34.35;9.13;;;8.90;99.90;;;;;;5113192;28;20113;-76
2021/12/29 12:05:11;;;;;;;42.08;9.57;;;8.90;99.90;;;;;;5095586;28;20391;-74
2021/12/29 12:07:39;;;;;;;37.35;9.30;;;8.90;99.90;;;;;;5095902;28;20112;-74
2021/12/29 12:10:11;;;;;;;30.98;9.15;;;8.90;99.90;;;;;;5113537;28;20055;-74
2021/12/29 12:12:52;;;;;;;32.63;8.75;;;8.80;99.90;;;;;;5095195;28;20047;-75
2021/12/29 12:15:32;;;;;;;35.30;8.52;;;8.90;99.90;;;;;;5079053;28;20048;-74
2021/12/29 12:18:06;;;;;;;43.00;9.25;;;8.90;99.90;;;;;;5095288;28;20047;-73
2021/12/29 12:20:43;;;;;;;41.88;10.60;;;8.80;99.90;;;;;;5129696;27;20387;-75
2021/12/29 12:23:20;;;;;;;41.15;11.15;;;8.80;99.90;;;;;;5095121;28;20050;-75
2021/12/29 12:25:46;;;;;;;40.72;11.55;;;8.80;99.90;;;;;;5112420;28;20043;-74
2021/12/29 12:28:16;;;;;;;42.58;11.77;;;8.80;99.90;;;;;;5113150;28;20048;-75
2021/12/29 12:30:46;;;;;;;43.55;10.90;;;8.80;99.90;;;;;;5094959;28;20050;-75
2021/12/29 12:33:23;;;;;;;38.20;10.60;;;8.80;99.90;;;;;;5077912;28;20090;-73
2021/12/29 12:35:51;;;;;;;40.72;11.27;;;8.80;99.90;;;;;;5113140;28;20134;-73
2021/12/29 12:38:37;;;;;;;36.25;11.40;;;8.80;99.90;;;;;;5094718;28;20090;-74
2021/12/29 12:41:07;;;;;;;36.03;11.00;;;8.90;99.90;;;;;;5112764;28;20043;-75
2021/12/29 12:43:35;;;;;;;33.22;10.82;;;8.80;99.90;;;;;;5078570;28;20134;-74
2021/12/29 12:46:02;;;;;;;37.72;10.90;;;8.80;99.90;;;;;;5112501;28;20047;-74
2021/12/29 12:48:34;;;;;;;44.83;10.98;;;8.70;99.90;;;;;;5111007;28;20100;-75
2021/12/29 12:51:13;;;;;;;35.65;10.93;;;8.70;99.90;;;;;;5130809;27;20070;-74
2021/12/29 12:53:41;;;;;;;40.25;10.63;;;8.70;99.90;;;;;;5098948;28;20046;-74
2021/12/29 12:56:12;;;;;;;41.03;11.45;;;8.70;99.90;;;;;;5117081;28;20051;-74